»·PEaware :: SHOOT12 KEND-KEND

SHOOT12 :: KEND-KEND

FLIGHT INFORMATION

Flight Status: Arrived
Operator: Unknown
More flights by this operator :: More flights under this callsign
Pilot: Vance 25th FTS (22159)
Aircraft: NORTHROP T-38 AT-38 TALON
(T38)
More flights by this aircraft type
Origin: KEND Vance AFB
United States
Destination: KEND Vance AFB
United States
More flights between these airports :: More routes between these airports
Route: +
File this flight plan on PilotEdge
Remarks:
Altitude:
(Current/Filed)
0ft
Speed:
(Current/Filed)
0kts
Departed: 25-Aug-20 10:19 AM
Arrived: 25-Aug-20 11:16 AM
Distance/Time
Traveled:
1nm/0:57
Distance/Time
To Go:
Arrived

Flight Plot

Page will automatically refresh every two minutes.

Flight plan parsing failed; only flown route is shown


Map Options




Map Legend


Flown Route
Filed Route
Departure Airport
Arrival Airport
Navaid (VOR, NDB)
Fix

Horizontal Profiles

Position Reports

Time Latitude Longitude Heading Altitude Ground
Speed
25-Aug-20 10:07 36.330267 -97.912870 270 1310ft 0kts
25-Aug-20 10:08 36.330267 -97.912872 270 1310ft 0kts
25-Aug-20 10:09 36.330267 -97.912874 270 1310ft 0kts
25-Aug-20 10:10 36.330267 -97.912876 270 1310ft 0kts
25-Aug-20 10:11 36.330267 -97.912878 270 1310ft 0kts
25-Aug-20 10:12 36.330267 -97.912880 270 1310ft 0kts
25-Aug-20 10:13 36.330267 -97.912881 270 1310ft 0kts
25-Aug-20 10:14 36.330267 -97.912883 270 1310ft 0kts
25-Aug-20 10:15 36.330267 -97.912885 270 1310ft 0kts
25-Aug-20 10:16 36.330276 -97.913576 271 1310ft 8kts
25-Aug-20 10:17 36.330774 -97.914707 0 1310ft 0kts
25-Aug-20 10:18 36.386712 -97.918264 326 2523ft 271kts
25-Aug-20 10:19 36.375001 -97.999982 177 2835ft 300kts
25-Aug-20 10:20 36.287120 -97.997028 179 2819ft 320kts
25-Aug-20 10:21 36.239421 -97.945165 85 2779ft 303kts
25-Aug-20 10:22 36.311849 -97.923334 359 2781ft 315kts
25-Aug-20 10:23 36.328325 -97.950897 175 2788ft 237kts
25-Aug-20 10:24 36.312054 -97.922492 353 1677ft 209kts
25-Aug-20 10:25 36.363875 -97.925136 350 2045ft 183kts
25-Aug-20 10:26 36.363201 -97.996940 183 2799ft 277kts
25-Aug-20 10:27 36.282967 -97.997063 179 2824ft 306kts
25-Aug-20 10:28 36.250405 -97.932264 38 2872ft 300kts
25-Aug-20 10:29 36.335675 -97.923043 359 2782ft 314kts
25-Aug-20 10:30 36.373890 -97.986228 249 2812ft 290kts
25-Aug-20 10:31 36.294572 -97.997948 179 2832ft 316kts
25-Aug-20 10:32 36.217365 -97.979899 89 2488ft 260kts
25-Aug-20 10:33 36.239478 -97.923580 1 2457ft 187kts
25-Aug-20 10:34 36.290970 -97.923210 359 2498ft 185kts
25-Aug-20 10:35 36.344228 -97.925127 354 1607ft 229kts
25-Aug-20 10:36 36.376153 -97.981180 258 2807ft 310kts
25-Aug-20 10:37 36.304161 -97.981541 87 2753ft 291kts
25-Aug-20 10:38 36.247260 -97.974087 97 2844ft 274kts
25-Aug-20 10:39 36.295883 -97.923238 358 2799ft 327kts
25-Aug-20 10:40 36.337494 -97.950027 177 2691ft 253kts
25-Aug-20 10:41 36.307976 -97.924250 16 1677ft 195kts
25-Aug-20 10:42 36.361760 -97.923547 349 2065ft 230kts
25-Aug-20 10:43 36.355597 -97.996654 182 2663ft 288kts
25-Aug-20 10:44 36.267750 -97.997905 180 2757ft 325kts
25-Aug-20 10:45 36.216946 -97.951798 86 2522ft 259kts
25-Aug-20 10:46 36.262586 -97.923197 0 2538ft 180kts
25-Aug-20 10:47 36.312870 -97.923251 0 1646ft 179kts
25-Aug-20 10:48 36.365102 -97.923563 344 2176ft 235kts
25-Aug-20 10:49 36.359405 -97.996380 182 2898ft 301kts
25-Aug-20 10:50 36.268167 -97.997914 181 2780ft 332kts
25-Aug-20 10:51 36.258964 -97.924729 6 2861ft 289kts
25-Aug-20 10:52 36.345492 -97.925097 332 2865ft 320kts
25-Aug-20 10:53 36.299587 -97.948247 154 2621ft 190kts
25-Aug-20 10:54 36.326759 -97.923175 359 1317ft 163kts
25-Aug-20 10:55 36.376757 -97.940476 271 2653ft 238kts
25-Aug-20 10:56 36.334331 -97.997806 180 2840ft 325kts
25-Aug-20 10:57 36.246867 -97.989899 116 2838ft 297kts
25-Aug-20 10:58 36.281780 -97.922977 0 2809ft 301kts
25-Aug-20 10:59 36.349268 -97.946428 210 2897ft 267kts
25-Aug-20 11:00 36.295962 -97.931495 71 2197ft 215kts
25-Aug-20 11:01 36.340294 -97.923171 358 1408ft 177kts
25-Aug-20 11:02 36.369685 -97.985392 244 3079ft 310kts
25-Aug-20 11:03 36.287083 -97.998009 180 2853ft 314kts
25-Aug-20 11:04 36.246025 -97.937439 64 2832ft 314kts
25-Aug-20 11:05 36.327573 -97.922900 359 2813ft 318kts
25-Aug-20 11:07 36.310074 -97.947054 180 2847ft 203kts
25-Aug-20 11:08 36.318073 -97.923185 359 1435ft 170kts
25-Aug-20 11:09 36.366916 -97.930688 307 2559ft 193kts
25-Aug-20 11:10 36.362716 -97.993529 205 2932ft 211kts
25-Aug-20 11:11 36.285170 -97.997659 179 2878ft 322kts
25-Aug-20 11:12 36.217398 -97.965158 88 2524ft 277kts
25-Aug-20 11:13 36.252126 -97.923581 0 2510ft 175kts
25-Aug-20 11:14 36.302422 -97.923354 359 1976ft 180kts
25-Aug-20 11:15 36.342409 -97.923158 0 1310ft 50kts
25-Aug-20 11:16 36.349053 -97.922440 88 1310ft 0kts

Navigation Log

Ident Type
Flight plan parsing failed, navigation log unavailable